Time;durP1;ratioP1;P1;durP2;ratioP2;P2;SDS_P1;SDS_P2;PMS_P1;PMS_P2;Temp;Humidity;BMP_temperature;BMP_pressure;BME280_temperature;BME280_humidity;BME280_pressure;Samples;Min_cycle;Max_cycle;Signal;HPM_P1;HPM_P2
2023/09/12 00:01:05;;;;;;;4.33;4.23;;;;;;;;;;4890957;29;20499;-71
2023/09/12 00:03:31;;;;;;;4.47;4.37;;;;;;;;;;4892890;29;20445;-71
2023/09/12 00:05:59;;;;;;;4.57;4.40;;;;;;;;;;4892293;29;20447;-71
2023/09/12 00:08:25;;;;;;;4.20;4.10;;;;;;;;;;4887753;29;21012;-72
2023/09/12 00:11:05;;;;;;;4.33;4.23;;;;;;;;;;4889954;29;20811;-71
2023/09/12 00:13:31;;;;;;;5.20;4.90;;;;;;;;;;4889119;29;20455;-71
2023/09/12 00:15:57;;;;;;;4.67;4.57;;;;;;;;;;4892345;29;20457;-71
2023/09/12 00:18:24;;;;;;;5.07;4.90;;;;;;;;;;4892237;29;20484;-71
2023/09/12 00:20:50;;;;;;;5.40;5.20;;;;;;;;;;4891720;29;20452;-71
2023/09/12 00:23:16;;;;;;;3.93;3.83;;;;;;;;;;4891758;29;20883;-72
2023/09/12 00:25:42;;;;;;;4.83;4.63;;;;;;;;;;4891092;29;20553;-72
2023/09/12 00:28:08;;;;;;;4.47;4.37;;;;;;;;;;4885740;29;20545;-72
2023/09/12 00:30:34;;;;;;;5.40;5.07;;;;;;;;;;4885086;29;20837;-72
2023/09/12 00:33:00;;;;;;;5.20;5.10;;;;;;;;;;4891468;29;20809;-72
2023/09/12 00:35:26;;;;;;;5.50;5.30;;;;;;;;;;4891728;29;20476;-72
2023/09/12 00:37:52;;;;;;;6.20;5.80;;;;;;;;;;4895873;29;20471;-72
2023/09/12 00:40:18;;;;;;;4.93;4.73;;;;;;;;;;4890808;29;20437;-72
2023/09/12 00:42:44;;;;;;;5.77;5.60;;;;;;;;;;4903923;29;20512;-72
2023/09/12 00:45:10;;;;;;;6.43;6.20;;;;;;;;;;4890666;29;20440;-70
2023/09/12 00:47:37;;;;;;;6.03;5.83;;;;;;;;;;4890976;29;20516;-71
2023/09/12 00:50:04;;;;;;;6.43;6.00;;;;;;;;;;4890779;29;20445;-72
2023/09/12 00:52:32;;;;;;;7.60;7.20;;;;;;;;;;4889774;29;20452;-71
2023/09/12 00:54:58;;;;;;;7.37;6.97;;;;;;;;;;4892122;29;20490;-71
2023/09/12 00:57:24;;;;;;;7.63;7.33;;;;;;;;;;4887912;29;20511;-71
2023/09/12 00:59:51;;;;;;;8.53;7.93;;;;;;;;;;4889599;29;20449;-71
2023/09/12 01:02:19;;;;;;;7.53;7.13;;;;;;;;;;4891673;29;20467;-71
2023/09/12 01:04:45;;;;;;;7.80;7.40;;;;;;;;;;4891458;29;20464;-71
2023/09/12 01:07:11;;;;;;;7.90;7.50;;;;;;;;;;4892245;29;20437;-71
2023/09/12 01:09:37;;;;;;;7.90;7.40;;;;;;;;;;4888740;29;20524;-71
2023/09/12 01:12:03;;;;;;;7.90;7.60;;;;;;;;;;4893738;29;20442;-71
2023/09/12 01:14:30;;;;;;;10.07;9.33;;;;;;;;;;4892010;29;20468;-71
2023/09/12 01:16:56;;;;;;;9.23;8.50;;;;;;;;;;4891624;29;20452;-71
2023/09/12 01:19:22;;;;;;;11.97;11.07;;;;;;;;;;4891415;29;20425;-71
2023/09/12 01:22:00;;;;;;;14.00;12.57;;;;;;;;;;4890979;29;20948;-73
2023/09/12 01:24:26;;;;;;;13.60;12.80;;;;;;;;;;4887664;29;20432;-72
2023/09/12 01:26:55;;;;;;;12.50;11.37;;;;;;;;;;4886723;29;20520;-71
2023/09/12 01:29:21;;;;;;;12.50;11.60;;;;;;;;;;4886053;29;20451;-71
2023/09/12 01:31:48;;;;;;;12.77;11.77;;;;;;;;;;4891674;29;20968;-72
2023/09/12 01:34:14;;;;;;;11.43;10.53;;;;;;;;;;4889271;29;20472;-70
2023/09/12 01:36:40;;;;;;;12.50;11.77;;;;;;;;;;4891617;29;20465;-71
2023/09/12 01:39:06;;;;;;;12.37;11.57;;;;;;;;;;4888936;29;20437;-71
2023/09/12 01:41:35;;;;;;;11.73;10.93;;;;;;;;;;4891063;29;20483;-71
2023/09/12 01:44:02;;;;;;;12.83;11.53;;;;;;;;;;4890815;29;21012;-71
2023/09/12 01:46:29;;;;;;;13.40;12.40;;;;;;;;;;4888716;29;20480;-72
2023/09/12 01:48:55;;;;;;;13.53;12.40;;;;;;;;;;4890436;29;20956;-71
2023/09/12 01:51:22;;;;;;;13.27;12.23;;;;;;;;;;4891152;29;20949;-71
2023/09/12 01:53:50;;;;;;;13.10;12.10;;;;;;;;;;4881805;29;20909;-71
2023/09/12 01:56:16;;;;;;;13.83;12.90;;;;;;;;;;4887056;29;20468;-72
2023/09/12 01:58:42;;;;;;;12.60;11.87;;;;;;;;;;4885607;29;20445;-72
2023/09/12 02:01:08;;;;;;;16.13;14.60;;;;;;;;;;4884313;29;20540;-72
2023/09/12 02:03:34;;;;;;;14.50;13.60;;;;;;;;;;4887734;29;20438;-72
2023/09/12 02:06:00;;;;;;;16.77;13.10;;;;;;;;;;4890058;29;20532;-72
2023/09/12 02:08:26;;;;;;;14.27;13.37;;;;;;;;;;4890681;29;20428;-72
2023/09/12 02:10:52;;;;;;;14.43;13.30;;;;;;;;;;4889278;29;20440;-72
2023/09/12 02:13:17;;;;;;;13.73;12.30;;;;;;;;;;4889887;29;20456;-72
2023/09/12 02:15:43;;;;;;;14.93;13.57;;;;;;;;;;4888821;29;20472;-72
2023/09/12 02:18:09;;;;;;;15.80;14.33;;;;;;;;;;4884328;29;20818;-72
2023/09/12 02:20:38;;;;;;;17.50;16.00;;;;;;;;;;4889277;29;20445;-72
2023/09/12 02:23:04;;;;;;;15.23;14.13;;;;;;;;;;4888745;29;20441;-72
2023/09/12 02:25:30;;;;;;;17.23;15.73;;;;;;;;;;4886567;29;20439;-72
2023/09/12 02:27:56;;;;;;;15.43;14.33;;;;;;;;;;4889309;29;20471;-72
2023/09/12 02:30:22;;;;;;;16.63;15.50;;;;;;;;;;4888650;29;20475;-72
2023/09/12 02:32:48;;;;;;;15.60;14.37;;;;;;;;;;4889380;29;20472;-72
2023/09/12 02:35:14;;;;;;;17.80;16.50;;;;;;;;;;4889642;29;20460;-71
2023/09/12 02:37:40;;;;;;;18.23;16.80;;;;;;;;;;4888971;29;20991;-71
2023/09/12 02:40:06;;;;;;;16.80;15.50;;;;;;;;;;4889016;29;20500;-72
2023/09/12 02:42:33;;;;;;;18.40;16.90;;;;;;;;;;4888730;29;20457;-71
2023/09/12 02:44:59;;;;;;;18.70;16.80;;;;;;;;;;4889531;29;20429;-71
2023/09/12 02:47:25;;;;;;;18.80;17.23;;;;;;;;;;4885112;29;20505;-73
2023/09/12 02:49:51;;;;;;;17.73;16.27;;;;;;;;;;4886227;29;20440;-72
2023/09/12 02:52:17;;;;;;;16.40;15.20;;;;;;;;;;4888724;29;20447;-71
2023/09/12 02:54:43;;;;;;;18.73;16.13;;;;;;;;;;4885519;29;20859;-71
2023/09/12 02:57:09;;;;;;;18.53;16.73;;;;;;;;;;4888109;29;20455;-72
2023/09/12 02:59:35;;;;;;;22.07;20.27;;;;;;;;;;4889513;29;20417;-72
2023/09/12 03:02:01;;;;;;;24.57;22.37;;;;;;;;;;4886847;29;20448;-72
2023/09/12 03:04:30;;;;;;;24.87;22.60;;;;;;;;;;4888429;29;20454;-72
2023/09/12 03:06:56;;;;;;;23.83;21.70;;;;;;;;;;4888946;29;20477;-72
2023/09/12 03:09:22;;;;;;;23.93;21.63;;;;;;;;;;4879786;29;20462;-72
2023/09/12 03:11:49;;;;;;;25.23;22.93;;;;;;;;;;4888693;29;20463;-72
2023/09/12 03:14:15;;;;;;;23.70;21.60;;;;;;;;;;4888396;29;20481;-72
2023/09/12 03:16:41;;;;;;;22.70;20.77;;;;;;;;;;4882840;29;20444;-71
2023/09/12 03:19:07;;;;;;;21.07;19.17;;;;;;;;;;4889700;29;20841;-72
2023/09/12 03:21:33;;;;;;;19.47;17.97;;;;;;;;;;4888473;29;20436;-72
2023/09/12 03:23:59;;;;;;;19.87;17.87;;;;;;;;;;4883711;29;21110;-71
2023/09/12 03:26:24;;;;;;;18.50;16.90;;;;;;;;;;4888471;29;20944;-71
2023/09/12 03:28:51;;;;;;;17.50;15.87;;;;;;;;;;4879662;29;21341;-71
2023/09/12 03:31:17;;;;;;;18.20;16.60;;;;;;;;;;4885352;29;20444;-71
2023/09/12 03:33:47;;;;;;;16.17;14.97;;;;;;;;;;4886785;29;20809;-71
2023/09/12 03:36:14;;;;;;;19.00;17.40;;;;;;;;;;4887470;29;20500;-71
2023/09/12 03:38:40;;;;;;;17.03;15.60;;;;;;;;;;4881138;29;20947;-71
2023/09/12 03:41:06;;;;;;;18.80;15.93;;;;;;;;;;4888780;29;21018;-71
2023/09/12 03:43:33;;;;;;;15.93;14.53;;;;;;;;;;4884158;29;20845;-72
2023/09/12 03:45:59;;;;;;;16.87;15.43;;;;;;;;;;4883523;29;20637;-72
2023/09/12 03:48:25;;;;;;;19.57;17.53;;;;;;;;;;4888093;29;21113;-72
2023/09/12 03:50:51;;;;;;;18.47;16.77;;;;;;;;;;4888694;29;20453;-72
2023/09/12 03:53:17;;;;;;;16.53;15.30;;;;;;;;;;4887990;29;20446;-72
2023/09/12 03:55:43;;;;;;;17.53;16.13;;;;;;;;;;4885918;29;20573;-72
2023/09/12 03:58:09;;;;;;;17.17;15.77;;;;;;;;;;4887574;29;20429;-72
2023/09/12 04:00:35;;;;;;;15.87;14.67;;;;;;;;;;4887240;29;20870;-72
2023/09/12 04:03:01;;;;;;;19.13;17.77;;;;;;;;;;4887904;29;20445;-72
2023/09/12 04:05:27;;;;;;;17.00;15.70;;;;;;;;;;4887554;29;20507;-72
2023/09/12 04:07:53;;;;;;;15.70;14.53;;;;;;;;;;4883142;29;20501;-72
2023/09/12 04:10:22;;;;;;;17.00;15.33;;;;;;;;;;4888206;29;20818;-72
2023/09/12 04:12:48;;;;;;;17.03;15.37;;;;;;;;;;4887490;29;20440;-71
2023/09/12 04:15:14;;;;;;;16.17;14.53;;;;;;;;;;4887288;29;20469;-72
2023/09/12 04:17:40;;;;;;;17.17;15.60;;;;;;;;;;4885922;29;20455;-72
2023/09/12 04:20:07;;;;;;;16.27;15.07;;;;;;;;;;4888182;29;20451;-72
2023/09/12 04:22:33;;;;;;;17.33;15.63;;;;;;;;;;4885051;29;20532;-72
2023/09/12 04:24:59;;;;;;;16.40;15.20;;;;;;;;;;4886251;29;20488;-71
2023/09/12 04:27:25;;;;;;;18.23;16.67;;;;;;;;;;4885335;29;20452;-72
2023/09/12 04:29:51;;;;;;;17.57;16.17;;;;;;;;;;4883375;29;20428;-73
2023/09/12 04:32:23;;;;;;;17.37;15.73;;;;;;;;;;4883768;29;20441;-71
2023/09/12 04:34:49;;;;;;;16.00;14.70;;;;;;;;;;4883388;29;21222;-72
2023/09/12 04:37:18;;;;;;;16.87;15.20;;;;;;;;;;4886442;29;20490;-73
2023/09/12 04:39:44;;;;;;;15.47;14.13;;;;;;;;;;4886672;29;20438;-73
2023/09/12 04:42:10;;;;;;;16.77;15.27;;;;;;;;;;4877134;29;21120;-70
2023/09/12 04:44:40;;;;;;;17.00;15.47;;;;;;;;;;4884623;29;20480;-73
2023/09/12 04:47:06;;;;;;;15.77;14.50;;;;;;;;;;4887282;29;20544;-72
2023/09/12 04:49:32;;;;;;;17.50;16.10;;;;;;;;;;4891109;29;20437;-72
2023/09/12 04:51:58;;;;;;;16.80;15.50;;;;;;;;;;4890855;29;20448;-72
2023/09/12 04:54:24;;;;;;;17.03;15.50;;;;;;;;;;4889157;29;20487;-72
2023/09/12 04:56:50;;;;;;;16.43;15.07;;;;;;;;;;4888034;29;20441;-72
2023/09/12 04:59:16;;;;;;;14.73;13.60;;;;;;;;;;4895102;29;20972;-72
2023/09/12 05:01:42;;;;;;;15.70;14.50;;;;;;;;;;4888298;29;20456;-71
2023/09/12 05:04:08;;;;;;;14.17;13.10;;;;;;;;;;4888294;29;20452;-72
2023/09/12 05:06:34;;;;;;;15.47;14.27;;;;;;;;;;4890821;29;20437;-72
2023/09/12 05:09:00;;;;;;;16.23;14.93;;;;;;;;;;4891666;29;21416;-72
2023/09/12 05:11:26;;;;;;;14.67;13.40;;;;;;;;;;4890534;29;20453;-71
2023/09/12 05:13:53;;;;;;;14.80;13.50;;;;;;;;;;4883873;29;21108;-72
2023/09/12 05:16:19;;;;;;;15.67;13.93;;;;;;;;;;4898776;29;20463;-71
2023/09/12 05:18:45;;;;;;;13.40;12.43;;;;;;;;;;4890574;29;20907;-72
2023/09/12 05:21:10;;;;;;;13.10;11.90;;;;;;;;;;4889918;29;20500;-72
2023/09/12 05:23:36;;;;;;;19.27;13.70;;;;;;;;;;4890911;29;20461;-71
2023/09/12 05:26:02;;;;;;;29.70;17.37;;;;;;;;;;4892321;29;20533;-72
2023/09/12 05:28:28;;;;;;;19.17;14.30;;;;;;;;;;4894482;29;20449;-73
2023/09/12 05:30:55;;;;;;;18.60;15.07;;;;;;;;;;4892170;29;20675;-73
2023/09/12 05:33:20;;;;;;;20.53;14.50;;;;;;;;;;4890263;29;20443;-72
2023/09/12 05:35:46;;;;;;;17.57;15.90;;;;;;;;;;4892941;29;20498;-73
2023/09/12 05:38:12;;;;;;;15.93;14.13;;;;;;;;;;4884669;29;20445;-73
2023/09/12 05:40:38;;;;;;;18.90;16.17;;;;;;;;;;4885472;29;20436;-72
2023/09/12 05:43:04;;;;;;;15.40;14.10;;;;;;;;;;4895799;29;20432;-72
2023/09/12 05:45:32;;;;;;;14.70;13.30;;;;;;;;;;4885288;29;20819;-72
2023/09/12 05:47:58;;;;;;;13.67;12.37;;;;;;;;;;4882225;29;20454;-71
2023/09/12 05:50:24;;;;;;;13.40;12.20;;;;;;;;;;4879917;29;20444;-73
2023/09/12 05:52:50;;;;;;;15.80;14.50;;;;;;;;;;4889639;29;20626;-72
2023/09/12 05:55:17;;;;;;;17.07;15.23;;;;;;;;;;4889206;29;20476;-72
2023/09/12 05:57:43;;;;;;;14.23;13.13;;;;;;;;;;4886967;29;20460;-73
2023/09/12 06:00:11;;;;;;;12.83;11.60;;;;;;;;;;4885175;29;20833;-72
2023/09/12 06:02:38;;;;;;;13.77;12.60;;;;;;;;;;4889366;29;20536;-73
2023/09/12 06:05:04;;;;;;;14.70;13.50;;;;;;;;;;4885748;29;20445;-72
2023/09/12 06:07:32;;;;;;;16.60;15.10;;;;;;;;;;4888208;29;20449;-73
2023/09/12 06:09:58;;;;;;;16.87;15.33;;;;;;;;;;4884664;29;20449;-73
2023/09/12 06:12:24;;;;;;;15.03;13.83;;;;;;;;;;4882430;29;20536;-74
2023/09/12 06:14:50;;;;;;;14.63;13.50;;;;;;;;;;4883631;29;20544;-72
2023/09/12 06:17:16;;;;;;;13.30;12.03;;;;;;;;;;4889301;29;20461;-72
2023/09/12 06:19:42;;;;;;;16.73;13.97;;;;;;;;;;4877517;29;20444;-74
2023/09/12 06:22:08;;;;;;;14.37;13.17;;;;;;;;;;4881601;29;20453;-72
2023/09/12 06:24:34;;;;;;;23.63;20.17;;;;;;;;;;4880809;29;20445;-73
2023/09/12 06:27:00;;;;;;;30.90;25.47;;;;;;;;;;4881262;29;20514;-72
2023/09/12 06:29:26;;;;;;;28.90;25.83;;;;;;;;;;4878362;29;20705;-73
2023/09/12 06:31:52;;;;;;;35.20;30.87;;;;;;;;;;4883710;29;20504;-75
2023/09/12 06:34:18;;;;;;;34.60;29.07;;;;;;;;;;4873297;29;20488;-74
2023/09/12 06:36:45;;;;;;;34.73;28.87;;;;;;;;;;4870105;29;20714;-75
2023/09/12 06:39:11;;;;;;;28.60;25.60;;;;;;;;;;4870310;29;20530;-74
2023/09/12 06:41:37;;;;;;;27.67;24.77;;;;;;;;;;4882087;29;20458;-75
2023/09/12 06:44:05;;;;;;;27.27;24.67;;;;;;;;;;4876629;29;20471;-75
2023/09/12 06:46:31;;;;;;;25.77;23.17;;;;;;;;;;4872789;29;20480;-74
2023/09/12 06:48:57;;;;;;;14.80;13.70;;;;;;;;;;4885065;29;20961;-74
2023/09/12 06:51:26;;;;;;;12.73;11.27;;;;;;;;;;4878943;29;20456;-76
2023/09/12 06:53:52;;;;;;;11.87;10.77;;;;;;;;;;4883574;29;20445;-75
2023/09/12 06:56:18;;;;;;;10.00;9.10;;;;;;;;;;4879243;29;20437;-74
2023/09/12 06:58:44;;;;;;;10.40;9.70;;;;;;;;;;4877314;29;20449;-75
2023/09/12 07:01:10;;;;;;;9.63;9.00;;;;;;;;;;4881015;29;21401;-74
2023/09/12 07:03:36;;;;;;;10.60;9.67;;;;;;;;;;4879577;29;21346;-74
2023/09/12 07:06:03;;;;;;;8.70;8.30;;;;;;;;;;4879493;29;20445;-74
2023/09/12 07:08:30;;;;;;;9.37;8.57;;;;;;;;;;4876863;29;20433;-74
2023/09/12 07:10:57;;;;;;;12.83;11.60;;;;;;;;;;4875211;29;20862;-74
2023/09/12 07:13:23;;;;;;;10.47;9.43;;;;;;;;;;4882637;29;20464;-74
2023/09/12 07:15:50;;;;;;;11.67;9.03;;;;;;;;;;4881018;29;20483;-76
2023/09/12 07:18:16;;;;;;;10.90;10.00;;;;;;;;;;4877933;29;20464;-75
2023/09/12 07:20:42;;;;;;;11.80;10.80;;;;;;;;;;4879233;29;20440;-73
2023/09/12 07:23:08;;;;;;;10.77;9.60;;;;;;;;;;4875682;29;20456;-73
2023/09/12 07:25:41;;;;;;;9.73;9.13;;;;;;;;;;4876003;29;20963;-74
2023/09/12 07:28:08;;;;;;;11.03;10.33;;;;;;;;;;4877826;29;20468;-72
2023/09/12 07:30:34;;;;;;;12.53;11.43;;;;;;;;;;4879971;29;20444;-73
2023/09/12 07:33:00;;;;;;;9.70;9.00;;;;;;;;;;4879022;29;20595;-74
2023/09/12 07:35:26;;;;;;;9.40;8.70;;;;;;;;;;4880052;29;20484;-73
2023/09/12 07:37:52;;;;;;;11.10;10.00;;;;;;;;;;4879786;29;20816;-73
2023/09/12 07:40:18;;;;;;;10.87;9.23;;;;;;;;;;4877760;29;20977;-74
2023/09/12 07:42:44;;;;;;;8.93;7.93;;;;;;;;;;4875404;29;20450;-71
2023/09/12 07:45:11;;;;;;;8.30;7.80;;;;;;;;;;4877221;29;20573;-73
2023/09/12 07:47:37;;;;;;;8.23;7.53;;;;;;;;;;4885415;29;20933;-73
2023/09/12 07:50:04;;;;;;;8.30;7.70;;;;;;;;;;4883277;29;20953;-73
2023/09/12 07:52:30;;;;;;;7.80;7.20;;;;;;;;;;4878735;29;20460;-74
2023/09/12 07:55:03;;;;;;;7.87;7.17;;;;;;;;;;4880076;29;20492;-73
2023/09/12 07:57:29;;;;;;;7.67;7.10;;;;;;;;;;4883489;29;20439;-73
2023/09/12 07:59:55;;;;;;;7.40;6.70;;;;;;;;;;4880202;29;20452;-73
2023/09/12 08:02:21;;;;;;;7.67;5.97;;;;;;;;;;4874074;29;20532;-72
2023/09/12 08:04:50;;;;;;;5.80;5.50;;;;;;;;;;4878179;29;20537;-73
2023/09/12 08:07:17;;;;;;;6.80;6.50;;;;;;;;;;4876920;29;20443;-71
2023/09/12 08:09:49;;;;;;;7.33;6.60;;;;;;;;;;4872558;29;20448;-72
2023/09/12 08:12:15;;;;;;;7.93;7.43;;;;;;;;;;4888190;29;20525;-73
2023/09/12 08:14:41;;;;;;;6.90;6.50;;;;;;;;;;4876643;29;20476;-72
2023/09/12 08:17:07;;;;;;;7.50;6.80;;;;;;;;;;4879598;29;20520;-72
2023/09/12 08:19:33;;;;;;;6.80;6.40;;;;;;;;;;4878546;29;20442;-72
2023/09/12 08:21:59;;;;;;;6.37;5.97;;;;;;;;;;4873499;29;20452;-72
2023/09/12 08:24:25;;;;;;;4.70;4.50;;;;;;;;;;4877279;29;20449;-72
2023/09/12 08:26:51;;;;;;;5.03;4.80;;;;;;;;;;4877573;29;20472;-72
2023/09/12 08:29:17;;;;;;;5.00;4.70;;;;;;;;;;4877532;29;20452;-72
2023/09/12 08:31:44;;;;;;;7.30;6.70;;;;;;;;;;4879672;29;20540;-73
2023/09/12 08:34:10;;;;;;;5.87;5.37;;;;;;;;;;4875394;29;20453;-72
2023/09/12 08:36:36;;;;;;;5.90;5.30;;;;;;;;;;4879290;29;20520;-73
2023/09/12 08:39:03;;;;;;;5.80;5.47;;;;;;;;;;4877411;29;21079;-72
2023/09/12 08:41:29;;;;;;;6.40;6.00;;;;;;;;;;4877622;29;20449;-72
2023/09/12 08:43:56;;;;;;;5.87;5.37;;;;;;;;;;4880517;29;20481;-72
2023/09/12 08:46:25;;;;;;;6.23;5.87;;;;;;;;;;4879781;29;20441;-74
2023/09/12 08:48:52;;;;;;;6.23;5.80;;;;;;;;;;4880705;29;21216;-73
2023/09/12 08:51:18;;;;;;;5.40;5.20;;;;;;;;;;4876841;29;21191;-72
2023/09/12 08:53:44;;;;;;;5.47;5.27;;;;;;;;;;4876042;29;20452;-72
2023/09/12 08:56:11;;;;;;;6.40;6.10;;;;;;;;;;4876993;29;20523;-72
2023/09/12 08:58:37;;;;;;;5.63;5.50;;;;;;;;;;4882328;29;21024;-73
2023/09/12 09:01:04;;;;;;;5.30;4.90;;;;;;;;;;4880165;29;20468;-72
2023/09/12 09:03:30;;;;;;;5.43;4.30;;;;;;;;;;4884990;29;20537;-72
2023/09/12 09:05:56;;;;;;;4.10;3.73;;;;;;;;;;4881022;29;20803;-73
2023/09/12 09:08:23;;;;;;;4.10;3.90;;;;;;;;;;4879157;29;20460;-72
2023/09/12 09:10:56;;;;;;;7.00;3.37;;;;;;;;;;4870605;29;20454;-72
2023/09/12 09:13:22;;;;;;;4.57;4.37;;;;;;;;;;4880652;29;20452;-72
2023/09/12 09:15:48;;;;;;;4.90;4.80;;;;;;;;;;4880051;29;20575;-72
2023/09/12 09:18:14;;;;;;;3.93;3.73;;;;;;;;;;4875270;29;21026;-73
2023/09/12 09:20:40;;;;;;;4.47;4.10;;;;;;;;;;4877547;29;20487;-72
2023/09/12 09:23:10;;;;;;;4.43;4.20;;;;;;;;;;4876442;29;20453;-75
2023/09/12 09:25:40;;;;;;;4.97;4.87;;;;;;;;;;4877155;29;20993;-73
2023/09/12 09:28:16;;;;;;;5.10;4.90;;;;;;;;;;4880590;29;20456;-74
2023/09/12 09:30:42;;;;;;;5.33;5.03;;;;;;;;;;4877429;29;20504;-73
2023/09/12 09:33:09;;;;;;;5.20;5.10;;;;;;;;;;4877434;29;20524;-73
2023/09/12 09:35:35;;;;;;;5.93;5.73;;;;;;;;;;4873737;29;20480;-75
2023/09/12 09:38:01;;;;;;;5.37;5.10;;;;;;;;;;4877741;29;20559;-75
2023/09/12 09:40:27;;;;;;;5.77;5.57;;;;;;;;;;4875365;29;20440;-76
2023/09/12 09:43:03;;;;;;;4.77;4.57;;;;;;;;;;4876423;29;20570;-74
2023/09/12 09:45:32;;;;;;;4.20;4.00;;;;;;;;;;4881849;29;20478;-76
2023/09/12 09:48:07;;;;;;;3.77;3.77;;;;;;;;;;4880733;29;20456;-75
2023/09/12 09:50:37;;;;;;;3.30;3.30;;;;;;;;;;4881469;29;20507;-74
2023/09/12 09:53:04;;;;;;;3.57;3.37;;;;;;;;;;4881363;29;20441;-75
2023/09/12 09:55:31;;;;;;;2.50;2.50;;;;;;;;;;4881071;29;20476;-74
2023/09/12 09:57:57;;;;;;;2.50;2.50;;;;;;;;;;4878548;29;20491;-76
2023/09/12 10:00:23;;;;;;;2.10;2.10;;;;;;;;;;4879096;29;20539;-75
2023/09/12 10:02:51;;;;;;;3.07;2.97;;;;;;;;;;4879114;29;20547;-73
2023/09/12 10:05:17;;;;;;;2.40;2.40;;;;;;;;;;4880716;29;20448;-73
2023/09/12 10:07:47;;;;;;;2.43;2.43;;;;;;;;;;4877582;29;21000;-73
2023/09/12 10:10:13;;;;;;;2.53;2.43;;;;;;;;;;4876885;29;20453;-73
2023/09/12 10:12:43;;;;;;;2.60;2.50;;;;;;;;;;4876661;29;21192;-73
2023/09/12 10:15:11;;;;;;;2.47;2.37;;;;;;;;;;4879150;29;20536;-73
2023/09/12 10:17:39;;;;;;;2.07;2.07;;;;;;;;;;4877126;29;20452;-73
2023/09/12 10:20:11;;;;;;;2.80;2.80;;;;;;;;;;4877852;29;20798;-72
2023/09/12 10:22:40;;;;;;;2.50;2.30;;;;;;;;;;4872266;29;20833;-72
2023/09/12 10:25:08;;;;;;;2.83;2.83;;;;;;;;;;4878755;29;20586;-73
2023/09/12 10:27:34;;;;;;;2.40;2.40;;;;;;;;;;4873332;29;20464;-72
2023/09/12 10:30:04;;;;;;;2.40;2.40;;;;;;;;;;4877215;29;20460;-72
2023/09/12 10:32:31;;;;;;;2.30;2.30;;;;;;;;;;4874115;29;20821;-73
2023/09/12 10:34:59;;;;;;;2.60;2.50;;;;;;;;;;4877134;29;20472;-71
2023/09/12 10:37:26;;;;;;;3.63;3.53;;;;;;;;;;4874713;29;20487;-71
2023/09/12 10:39:54;;;;;;;3.40;3.30;;;;;;;;;;4880064;29;20484;-73
2023/09/12 10:42:21;;;;;;;3.20;3.10;;;;;;;;;;4877900;29;20433;-72
2023/09/12 10:44:47;;;;;;;3.50;3.50;;;;;;;;;;4875722;29;20475;-75
2023/09/12 10:47:14;;;;;;;3.50;3.20;;;;;;;;;;4878069;29;20449;-71
2023/09/12 10:49:44;;;;;;;3.37;3.30;;;;;;;;;;4875429;29;20536;-72
2023/09/12 10:52:10;;;;;;;2.60;2.53;;;;;;;;;;4878451;29;20449;-72
2023/09/12 10:54:37;;;;;;;3.37;3.37;;;;;;;;;;4878192;29;20892;-71
2023/09/12 10:57:07;;;;;;;3.30;3.30;;;;;;;;;;4876510;29;20459;-73
2023/09/12 10:59:37;;;;;;;2.90;2.90;;;;;;;;;;4875235;29;20452;-72
2023/09/12 11:02:23;;;;;;;2.70;2.60;;;;;;;;;;4874641;29;20475;-72
2023/09/12 11:04:49;;;;;;;2.67;2.67;;;;;;;;;;4871673;29;21380;-73
2023/09/12 11:07:34;;;;;;;4.87;4.77;;;;;;;;;;4877795;29;20941;-73
2023/09/12 11:10:11;;;;;;;2.47;2.47;;;;;;;;;;4872133;29;20720;-73
2023/09/12 11:12:37;;;;;;;3.00;2.80;;;;;;;;;;4869992;29;20472;-71
2023/09/12 11:15:08;;;;;;;3.23;3.10;;;;;;;;;;4875997;29;20481;-72
2023/09/12 11:17:44;;;;;;;3.20;3.10;;;;;;;;;;4877233;29;20989;-71
2023/09/12 11:20:10;;;;;;;3.30;3.30;;;;;;;;;;4884354;29;20440;-72
2023/09/12 11:22:39;;;;;;;3.37;3.27;;;;;;;;;;4883355;29;20445;-72
2023/09/12 11:25:05;;;;;;;3.33;3.23;;;;;;;;;;4885277;29;20459;-71
2023/09/12 11:27:51;;;;;;;5.80;5.60;;;;;;;;;;4886169;29;20444;-72
2023/09/12 11:30:21;;;;;;;3.53;3.43;;;;;;;;;;4873738;29;20527;-74
2023/09/12 11:32:49;;;;;;;4.10;3.80;;;;;;;;;;4881142;29;20449;-71
2023/09/12 11:35:15;;;;;;;3.00;2.90;;;;;;;;;;4882925;29;20496;-73
2023/09/12 11:37:51;;;;;;;2.97;2.87;;;;;;;;;;4882467;29;20519;-73
2023/09/12 11:40:18;;;;;;;3.40;3.40;;;;;;;;;;4883426;29;20491;-73
2023/09/12 11:42:47;;;;;;;4.00;3.90;;;;;;;;;;4885538;29;20855;-73
2023/09/12 11:45:13;;;;;;;3.73;3.63;;;;;;;;;;4885127;29;20471;-73
2023/09/12 11:47:42;;;;;;;3.60;3.43;;;;;;;;;;4889764;29;20447;-72
2023/09/12 11:50:08;;;;;;;3.00;3.00;;;;;;;;;;4888107;29;20457;-73
2023/09/12 11:52:38;;;;;;;3.73;3.70;;;;;;;;;;4889619;29;21388;-73
2023/09/12 11:55:04;;;;;;;4.07;3.97;;;;;;;;;;4882543;29;20477;-72
2023/09/12 11:57:31;;;;;;;4.60;4.50;;;;;;;;;;4883677;29;20445;-72
2023/09/12 11:59:57;;;;;;;4.57;4.33;;;;;;;;;;4888357;29;20466;-72
2023/09/12 12:02:23;;;;;;;4.17;3.93;;;;;;;;;;4885498;29;20812;-73
2023/09/12 12:04:50;;;;;;;4.30;4.20;;;;;;;;;;4887000;29;20979;-72
2023/09/12 12:07:16;;;;;;;4.17;4.07;;;;;;;;;;4887347;29;20527;-73
2023/09/12 12:09:42;;;;;;;4.20;4.10;;;;;;;;;;4886467;29;20535;-73
2023/09/12 12:12:14;;;;;;;4.60;4.27;;;;;;;;;;4885587;29;20449;-72
2023/09/12 12:14:41;;;;;;;3.93;3.93;;;;;;;;;;4888797;29;20558;-75
2023/09/12 12:17:11;;;;;;;4.43;4.27;;;;;;;;;;4889130;29;20540;-70
2023/09/12 12:19:38;;;;;;;4.37;4.27;;;;;;;;;;4882078;29;20643;-71
2023/09/12 12:22:05;;;;;;;4.30;4.07;;;;;;;;;;4886357;29;20595;-72
2023/09/12 12:24:42;;;;;;;4.10;4.00;;;;;;;;;;4889352;29;20500;-71
2023/09/12 12:27:09;;;;;;;3.97;3.83;;;;;;;;;;4889704;29;20429;-72
2023/09/12 12:29:37;;;;;;;4.13;4.03;;;;;;;;;;4884951;29;20460;-74
2023/09/12 12:32:05;;;;;;;4.67;4.57;;;;;;;;;;4881423;29;20511;-73
2023/09/12 12:34:31;;;;;;;5.70;5.30;;;;;;;;;;4885675;29;20476;-75
2023/09/12 12:36:57;;;;;;;4.43;4.40;;;;;;;;;;4886475;29;20448;-73
2023/09/12 12:39:23;;;;;;;4.03;3.90;;;;;;;;;;4874258;29;20428;-73
2023/09/12 12:41:52;;;;;;;5.00;4.80;;;;;;;;;;4878029;29;20441;-72
2023/09/12 12:44:18;;;;;;;4.50;4.40;;;;;;;;;;4883205;29;20468;-74
2023/09/12 12:46:54;;;;;;;4.37;4.27;;;;;;;;;;4875803;29;20587;-72
2023/09/12 12:49:21;;;;;;;5.10;4.70;;;;;;;;;;4877064;29;20941;-73
2023/09/12 12:51:47;;;;;;;4.90;4.80;;;;;;;;;;4878057;29;20537;-72
2023/09/12 12:54:14;;;;;;;5.40;5.20;;;;;;;;;;4878402;29;20452;-72
2023/09/12 12:56:40;;;;;;;5.80;5.70;;;;;;;;;;4877950;29;21078;-71
2023/09/12 12:59:08;;;;;;;5.57;5.20;;;;;;;;;;4878657;29;20540;-73
2023/09/12 13:01:35;;;;;;;5.80;5.40;;;;;;;;;;4879378;29;20793;-72
2023/09/12 13:04:01;;;;;;;5.70;5.60;;;;;;;;;;4878259;29;20459;-71
2023/09/12 13:06:30;;;;;;;5.83;5.63;;;;;;;;;;4878207;29;20449;-73
2023/09/12 13:09:03;;;;;;;6.03;5.73;;;;;;;;;;4875741;29;20457;-73
2023/09/12 13:11:29;;;;;;;5.57;5.47;;;;;;;;;;4875502;29;20848;-72
2023/09/12 13:13:56;;;;;;;6.20;5.90;;;;;;;;;;4877284;29;20444;-72
2023/09/12 13:16:22;;;;;;;6.23;5.90;;;;;;;;;;4878454;29;20568;-71
2023/09/12 13:18:48;;;;;;;5.90;5.60;;;;;;;;;;4878963;29;20595;-72
2023/09/12 13:21:14;;;;;;;5.20;4.90;;;;;;;;;;4879557;29;21056;-72
2023/09/12 13:23:40;;;;;;;5.60;5.40;;;;;;;;;;4879254;29;20448;-73
2023/09/12 13:26:09;;;;;;;5.53;5.33;;;;;;;;;;4879425;29;20901;-72
2023/09/12 13:28:36;;;;;;;5.50;5.40;;;;;;;;;;4876985;29;21112;-73
2023/09/12 13:31:02;;;;;;;5.37;5.07;;;;;;;;;;4879052;29;20843;-71
2023/09/12 13:33:29;;;;;;;5.57;5.47;;;;;;;;;;4880564;29;20512;-72
2023/09/12 13:35:55;;;;;;;5.70;5.50;;;;;;;;;;4882989;29;20467;-72
2023/09/12 13:38:22;;;;;;;6.20;5.73;;;;;;;;;;4877944;29;20571;-72
2023/09/12 13:40:48;;;;;;;5.10;4.80;;;;;;;;;;4879467;29;20812;-71
2023/09/12 13:43:14;;;;;;;6.07;5.77;;;;;;;;;;4880495;29;20544;-70
2023/09/12 13:45:40;;;;;;;5.40;5.30;;;;;;;;;;4874699;29;20452;-72
2023/09/12 13:48:08;;;;;;;5.80;5.60;;;;;;;;;;4878461;29;20810;-72
2023/09/12 13:50:34;;;;;;;6.53;6.33;;;;;;;;;;4878076;29;20453;-71
2023/09/12 13:53:06;;;;;;;5.97;5.67;;;;;;;;;;4880662;29;20441;-72
2023/09/12 13:55:32;;;;;;;9.53;8.73;;;;;;;;;;4879759;29;20477;-71
2023/09/12 13:57:59;;;;;;;6.97;6.50;;;;;;;;;;4878503;29;20503;-73
2023/09/12 14:00:25;;;;;;;6.70;6.47;;;;;;;;;;4878139;29;20515;-71
2023/09/12 14:02:51;;;;;;;6.47;6.00;;;;;;;;;;4878869;29;20444;-71
2023/09/12 14:05:17;;;;;;;6.43;6.03;;;;;;;;;;4878045;29;20764;-71
2023/09/12 14:07:43;;;;;;;6.90;6.60;;;;;;;;;;4877928;29;20464;-72
2023/09/12 14:10:10;;;;;;;5.50;5.30;;;;;;;;;;4878466;29;20448;-72
2023/09/12 14:12:36;;;;;;;5.70;5.50;;;;;;;;;;4879283;29;20449;-72
2023/09/12 14:15:03;;;;;;;5.60;5.30;;;;;;;;;;4877430;29;20487;-73
2023/09/12 14:17:29;;;;;;;6.07;5.57;;;;;;;;;;4876598;29;20453;-73
2023/09/12 14:19:55;;;;;;;5.33;5.10;;;;;;;;;;4877764;29;20440;-72
2023/09/12 14:22:22;;;;;;;6.47;5.97;;;;;;;;;;4875768;29;20459;-73
2023/09/12 14:24:48;;;;;;;47.70;9.97;;;;;;;;;;4879132;29;20445;-73
2023/09/12 14:27:14;;;;;;;5.63;5.53;;;;;;;;;;4877943;29;21018;-72
2023/09/12 14:29:40;;;;;;;7.37;6.90;;;;;;;;;;4874417;29;20493;-74